Time;durP1;ratioP1;P1;durP2;ratioP2;P2;SDS_P1;SDS_P2;PMS_P1;PMS_P2;Temp;Humidity;BMP_temperature;BMP_pressure;BME280_temperature;BME280_humidity;BME280_pressure;Samples;Min_cycle;Max_cycle;Signal;HPM_P1;HPM_P2
2022/01/07 00:01:24;;;;;;;5.47;3.60;;;13.20;99.10;;;14.03;49.30;101296.28;4948646;28;98608;-47
2022/01/07 00:03:51;;;;;;;6.67;3.70;;;13.40;99.10;;;14.15;48.44;101299.31;4950349;28;96967;-49
2022/01/07 00:06:19;;;;;;;8.10;4.67;;;13.60;96.40;;;14.08;45.03;101297.00;4946877;28;98644;-48
2022/01/07 00:08:44;;;;;;;5.13;3.07;;;13.50;95.50;;;14.07;48.96;101293.47;4948349;28;97281;-51
2022/01/07 00:11:11;;;;;;;10.03;4.40;;;13.50;98.30;;;14.13;48.24;101292.34;4944403;28;99486;-48
2022/01/07 00:13:37;;;;;;;4.40;3.60;;;13.50;96.90;;;14.16;48.63;101286.91;4944339;28;100245;-45
2022/01/07 00:16:04;;;;;;;6.03;3.73;;;13.60;96.70;;;14.18;48.84;101279.78;4939666;28;97648;-48
2022/01/07 00:18:30;;;;;;;6.27;3.70;;;13.60;98.50;;;14.25;48.56;101275.94;4949721;28;99608;-46
2022/01/07 00:20:56;;;;;;;6.97;3.87;;;13.80;96.90;;;14.31;48.47;101270.38;4937539;28;117339;-47
2022/01/07 00:23:22;;;;;;;6.40;3.50;;;13.90;97.70;;;14.20;47.03;101262.00;4944777;28;97058;-48
2022/01/07 00:25:49;;;;;;;4.87;3.50;;;13.70;95.60;;;14.21;48.48;101266.38;4948010;28;99009;-49
2022/01/07 00:28:16;;;;;;;6.97;3.17;;;13.60;97.50;;;14.19;46.18;101254.97;4942811;28;97679;-45
2022/01/07 00:30:42;;;;;;;6.03;3.87;;;13.70;95.20;;;14.30;48.02;101250.94;4958014;28;98644;-45
2022/01/07 00:33:09;;;;;;;5.80;3.43;;;13.80;97.30;;;14.37;48.02;101254.22;4944344;28;99590;-47
2022/01/07 00:35:36;;;;;;;8.20;4.57;;;14.00;96.60;;;14.46;47.06;101245.88;4957562;28;96991;-47
2022/01/07 00:38:03;;;;;;;4.57;2.90;;;14.10;94.80;;;14.56;47.82;101244.56;4946531;28;97243;-53
2022/01/07 00:40:29;;;;;;;4.97;3.10;;;14.20;97.80;;;14.55;47.65;101237.53;4943996;28;97648;-47
2022/01/07 00:42:55;;;;;;;7.10;3.70;;;14.20;96.90;;;14.54;47.10;101234.94;4956720;28;97026;-48
2022/01/07 00:45:24;;;;;;;7.77;3.10;;;14.10;95.90;;;14.55;47.33;101229.56;4940569;28;102913;-47
2022/01/07 00:47:52;;;;;;;7.27;3.47;;;14.10;96.90;;;14.55;47.23;101221.59;4943735;28;97491;-48
2022/01/07 00:50:20;;;;;;;5.43;3.10;;;14.10;96.70;;;14.61;47.08;101214.28;4945124;28;99315;-47
2022/01/07 00:52:47;;;;;;;8.40;4.63;;;14.20;96.70;;;14.58;46.37;101205.53;4945565;28;98330;-46
2022/01/07 00:55:14;;;;;;;5.43;3.63;;;14.30;95.10;;;14.54;46.18;101211.91;4944252;28;97154;-49
2022/01/07 00:57:41;;;;;;;7.10;3.30;;;14.20;93.90;;;14.59;46.88;101207.25;4945798;28;99030;-48
2022/01/07 01:00:12;;;;;;;4.87;2.70;;;14.20;96.10;;;14.57;47.23;101198.50;4943429;28;99207;-46
2022/01/07 01:02:38;;;;;;;4.17;2.87;;;14.10;96.20;;;14.58;47.57;101189.59;4929848;28;97475;-46
2022/01/07 01:05:07;;;;;;;2.87;2.57;;;14.20;96.60;;;14.61;47.17;101183.31;4945203;28;97685;-45
2022/01/07 01:07:33;;;;;;;4.53;3.37;;;14.30;95.60;;;14.70;43.93;101190.88;4957606;28;97677;-46
2022/01/07 01:10:01;;;;;;;5.73;3.30;;;14.40;94.10;;;14.79;47.01;101192.25;4965429;28;101013;-46
2022/01/07 01:12:27;;;;;;;9.57;4.70;;;14.50;97.00;;;14.72;43.97;101186.34;4930071;28;97464;-46
2022/01/07 01:14:53;;;;;;;6.97;3.83;;;14.50;91.90;;;14.67;46.50;101188.34;4951275;28;96974;-50
2022/01/07 01:17:19;;;;;;;5.00;2.90;;;14.30;93.40;;;14.62;47.28;101189.50;4947830;28;98229;-49
2022/01/07 01:19:45;;;;;;;4.47;3.07;;;14.10;97.00;;;14.57;47.44;101182.56;4947398;28;101929;-47
2022/01/07 01:22:10;;;;;;;5.00;2.87;;;14.00;96.10;;;14.56;47.33;101186.16;4943972;28;96930;-46
2022/01/07 01:24:36;;;;;;;7.47;4.00;;;14.00;96.90;;;14.47;44.73;101186.59;4948498;28;97813;-46
2022/01/07 01:27:02;;;;;;;5.87;3.77;;;14.00;93.50;;;14.42;47.54;101196.47;4943234;28;97752;-53
2022/01/07 01:29:28;;;;;;;4.47;2.60;;;13.80;96.50;;;14.34;48.01;101182.69;4948077;28;102788;-46
2022/01/07 01:31:54;;;;;;;7.37;3.40;;;13.70;96.10;;;14.26;48.00;101183.00;4949400;28;97364;-48
2022/01/07 01:34:20;;;;;;;8.27;4.10;;;13.60;96.50;;;14.15;47.25;101179.94;4944718;28;97168;-49
2022/01/07 01:36:46;;;;;;;5.67;3.17;;;13.40;95.70;;;14.09;48.21;101174.03;4948602;28;111005;-48
2022/01/07 01:39:12;;;;;;;4.50;3.13;;;13.30;97.70;;;14.05;48.29;101172.44;4943192;28;102790;-49
2022/01/07 01:41:40;;;;;;;4.87;2.67;;;13.30;97.60;;;14.19;48.34;101160.31;4949371;28;96982;-48
2022/01/07 01:44:06;;;;;;;7.30;4.50;;;13.50;98.50;;;14.29;46.76;101160.78;4959040;28;97488;-49
2022/01/07 01:46:32;;;;;;;3.20;2.40;;;13.80;94.80;;;14.28;47.64;101159.06;4948012;28;98339;-52
2022/01/07 01:48:58;;;;;;;4.67;2.90;;;13.80;97.20;;;14.40;47.45;101158.53;4951384;28;97670;-52
2022/01/07 01:51:24;;;;;;;4.97;3.07;;;14.00;96.10;;;14.49;47.63;101146.69;4942188;28;97069;-48
2022/01/07 01:53:50;;;;;;;6.83;3.50;;;14.10;97.20;;;14.46;47.09;101145.00;4954521;28;96966;-51
2022/01/07 01:56:15;;;;;;;7.10;3.77;;;14.10;96.30;;;14.61;45.77;101146.16;4944974;28;97033;-46
2022/01/07 01:58:42;;;;;;;6.07;3.23;;;14.30;94.90;;;14.65;42.76;101139.78;4950478;28;97342;-51
2022/01/07 02:01:08;;;;;;;4.97;3.00;;;14.40;93.70;;;14.76;46.74;101137.50;4944393;28;97058;-48
2022/01/07 02:03:34;;;;;;;5.73;2.87;;;14.50;96.30;;;14.73;44.94;101131.44;4949515;28;96927;-48
2022/01/07 02:06:00;;;;;;;6.37;4.03;;;14.50;93.20;;;14.71;44.70;101120.03;4950776;28;100092;-48
2022/01/07 02:08:26;;;;;;;7.60;3.83;;;14.40;93.00;;;14.67;41.95;101118.44;4942155;28;97227;-50
2022/01/07 02:10:54;;;;;;;5.60;3.17;;;14.40;93.10;;;14.61;47.00;101124.03;4952128;28;96814;-46
2022/01/07 02:13:20;;;;;;;5.23;2.73;;;14.20;96.30;;;14.36;46.30;101119.78;4945394;28;96962;-50
2022/01/07 02:15:46;;;;;;;5.80;3.43;;;13.80;93.90;;;14.28;47.29;101121.91;4948271;28;100456;-47
2022/01/07 02:18:12;;;;;;;8.73;3.33;;;13.70;97.10;;;14.20;47.24;101113.44;4977620;28;107878;-47
2022/01/07 02:20:38;;;;;;;4.40;2.60;;;13.60;96.20;;;14.27;47.69;101104.25;4973385;28;96809;-47
2022/01/07 02:23:04;;;;;;;6.33;3.47;;;13.70;97.10;;;14.30;46.48;101104.13;4974418;28;97567;-46
2022/01/07 02:25:30;;;;;;;7.33;3.77;;;14.00;95.00;;;14.23;44.18;101097.38;4973475;28;99640;-49
2022/01/07 02:27:56;;;;;;;5.47;2.97;;;13.80;92.70;;;14.35;47.60;101107.47;4976780;28;97035;-49
2022/01/07 02:30:27;;;;;;;4.80;2.80;;;13.90;97.60;;;14.27;47.53;101093.66;4971955;28;97332;-45
2022/01/07 02:32:53;;;;;;;6.53;3.60;;;13.80;96.50;;;14.21;46.29;101089.47;4974734;28;96963;-48
2022/01/07 02:35:22;;;;;;;3.83;2.80;;;13.80;93.50;;;14.19;47.91;101101.09;4949816;28;96949;-48
2022/01/07 02:37:49;;;;;;;4.37;2.77;;;13.60;96.20;;;14.20;47.90;101087.75;4972696;28;98012;-47
2022/01/07 02:40:15;;;;;;;5.87;3.20;;;13.60;97.70;;;14.21;42.83;101088.63;4974871;28;96701;-49
2022/01/07 02:42:41;;;;;;;3.77;2.57;;;13.70;93.80;;;14.17;47.86;101092.31;4975277;28;97356;-45
2022/01/07 02:50:25;;;;;;;4.97;2.60;;;13.40;97.10;;;13.99;46.96;101084.22;2890579;22;98424;-45
2022/01/07 02:52:52;;;;;;;4.17;2.30;;;13.40;95.70;;;13.98;48.52;101082.50;5008139;27;97185;-49
2022/01/07 02:55:20;;;;;;;5.07;3.00;;;13.30;98.00;;;14.05;48.41;101076.97;5019584;27;96927;-51
2022/01/07 02:57:46;;;;;;;8.80;3.90;;;13.50;97.90;;;14.08;47.92;101067.06;5011114;28;98252;-51
2022/01/07 03:00:12;;;;;;;5.07;3.80;;;13.50;96.50;;;14.00;47.69;101070.03;5005192;27;99703;-46
2022/01/07 03:02:38;;;;;;;7.43;4.20;;;13.50;96.30;;;13.94;48.35;101070.31;5004220;28;97511;-50
2022/01/07 03:05:05;;;;;;;5.57;3.37;;;13.30;96.00;;;13.76;48.18;101065.81;5005938;27;97862;-47
2022/01/07 03:07:31;;;;;;;6.97;4.33;;;12.90;97.20;;;13.78;48.65;101071.91;5023001;27;96996;-48
2022/01/07 03:09:57;;;;;;;5.37;3.30;;;12.90;97.40;;;13.67;49.00;101071.47;5008979;27;97375;-50
2022/01/07 03:12:23;;;;;;;7.53;4.07;;;12.80;97.70;;;13.55;48.60;101061.38;5009006;27;97057;-46
2022/01/07 03:14:49;;;;;;;7.37;4.10;;;12.70;96.60;;;13.37;47.90;101053.28;5008351;27;97088;-47
2022/01/07 03:17:15;;;;;;;4.53;3.50;;;12.50;96.20;;;13.32;50.13;101049.97;5006850;27;97563;-46
2022/01/07 03:19:41;;;;;;;7.10;4.00;;;12.40;98.90;;;13.24;50.24;101046.75;5002501;28;97004;-51
2022/01/07 03:22:07;;;;;;;3.60;2.43;;;12.30;98.30;;;13.24;50.55;101046.75;5023361;27;97151;-49
2022/01/07 03:24:34;;;;;;;4.20;2.70;;;12.30;99.30;;;13.33;50.18;101051.69;4998960;28;97687;-49
2022/01/07 03:27:00;;;;;;;3.37;2.33;;;12.50;99.80;;;13.43;50.34;101035.38;5028571;27;97786;-49
2022/01/07 03:29:26;;;;;;;3.83;2.40;;;12.70;98.90;;;13.62;49.85;101025.75;5006547;27;96935;-48
2022/01/07 03:31:52;;;;;;;3.70;2.47;;;13.00;99.70;;;13.70;49.62;101018.31;5011354;27;97044;-49
2022/01/07 03:34:18;;;;;;;3.57;2.40;;;13.20;98.40;;;13.85;49.42;101022.97;4999951;27;97639;-47
2022/01/07 03:36:43;;;;;;;3.43;2.30;;;13.40;98.80;;;14.05;48.80;101008.00;5005882;27;124003;-46
2022/01/07 03:39:09;;;;;;;4.10;2.13;;;13.70;98.20;;;14.26;48.39;101001.72;5019650;27;100236;-48
2022/01/07 03:41:35;;;;;;;4.07;2.47;;;14.00;98.10;;;14.44;47.79;100995.59;5003283;28;97379;-51
2022/01/07 03:44:01;;;;;;;3.37;2.30;;;14.30;97.50;;;14.66;47.47;100994.59;5015388;27;97667;-46
2022/01/07 03:46:27;;;;;;;4.17;2.10;;;14.60;96.20;;;14.67;46.92;100981.25;5007676;27;101508;-50
2022/01/07 03:48:53;;;;;;;3.60;2.17;;;14.50;94.90;;;14.84;46.36;100980.44;5006143;28;96899;-48
2022/01/07 03:51:19;;;;;;;3.27;2.17;;;14.70;96.40;;;14.99;46.34;100971.72;5003622;27;96955;-47
2022/01/07 03:53:45;;;;;;;2.50;2.03;;;14.90;96.20;;;15.18;45.77;100959.25;5010607;27;96852;-46
2022/01/07 03:56:17;;;;;;;2.23;2.00;;;15.20;95.70;;;15.22;45.39;100952.00;4999885;27;97349;-50
2022/01/07 03:58:44;;;;;;;4.23;2.07;;;15.30;95.20;;;15.38;45.10;100946.78;5008906;27;96712;-48
2022/01/07 04:01:10;;;;;;;3.83;2.40;;;15.50;95.30;;;15.47;45.01;100944.47;5008853;27;97320;-50
2022/01/07 04:03:36;;;;;;;3.20;1.97;;;15.60;95.00;;;15.57;44.72;100936.91;5012483;28;99555;-49
2022/01/07 04:06:02;;;;;;;4.43;2.20;;;15.70;94.60;;;15.62;44.54;100929.59;5007232;27;97455;-54
2022/01/07 04:08:28;;;;;;;4.73;2.73;;;15.70;94.30;;;15.55;44.23;100933.47;5013806;28;96817;-49
2022/01/07 04:10:54;;;;;;;2.80;1.43;;;15.60;93.70;;;15.58;44.60;100927.13;5012583;27;98051;-49
2022/01/07 04:13:20;;;;;;;3.43;2.17;;;15.60;94.80;;;15.60;44.56;100926.13;4996294;28;99449;-50
2022/01/07 04:15:45;;;;;;;3.10;2.30;;;15.60;94.30;;;15.63;44.17;100923.34;5010666;27;97186;-50
2022/01/07 04:18:11;;;;;;;7.27;3.50;;;15.70;93.60;;;15.54;42.62;100926.44;4991412;27;98645;-48
2022/01/07 04:20:37;;;;;;;6.77;3.33;;;15.50;92.20;;;15.32;40.77;100933.78;5006591;27;97428;-48
2022/01/07 04:23:07;;;;;;;3.90;2.93;;;15.30;90.50;;;15.28;40.36;100934.88;5004226;27;97408;-51
2022/01/07 04:25:34;;;;;;;2.43;1.70;;;15.10;91.70;;;15.23;45.30;100934.25;4996433;28;97437;-51
2022/01/07 04:28:07;;;;;;;2.83;2.10;;;14.90;95.70;;;15.24;44.55;100922.69;5025998;27;97665;-50
2022/01/07 04:30:40;;;;;;;2.77;1.60;;;15.00;93.90;;;15.15;45.49;100916.88;5005127;27;96939;-47
2022/01/07 04:33:08;;;;;;;4.47;2.33;;;14.90;95.40;;;15.11;44.84;100902.03;5005942;27;102869;-47
2022/01/07 04:35:36;;;;;;;4.17;1.90;;;14.90;94.40;;;15.19;45.24;100914.97;5005866;28;99001;-48
2022/01/07 04:38:04;;;;;;;4.60;1.73;;;15.00;94.90;;;15.26;45.09;100900.41;5008952;27;96688;-56
2022/01/07 04:40:32;;;;;;;3.67;2.70;;;15.20;95.10;;;15.21;40.42;100901.59;5011022;28;96864;-48
2022/01/07 04:42:58;;;;;;;2.57;1.87;;;15.40;92.20;;;15.31;44.90;100897.50;5009753;27;97824;-48
2022/01/07 04:45:24;;;;;;;4.53;2.40;;;15.30;94.60;;;15.36;44.41;100896.34;5003593;27;97284;-47
2022/01/07 04:47:50;;;;;;;2.60;1.80;;;15.40;93.70;;;15.32;44.97;100904.53;5007454;27;97100;-45
2022/01/07 04:50:19;;;;;;;3.33;2.00;;;15.30;92.90;;;15.22;42.22;100903.31;5002862;27;97241;-48
2022/01/07 04:52:46;;;;;;;5.33;2.83;;;15.10;93.20;;;15.16;44.62;100891.19;5009649;28;97608;-52
2022/01/07 04:55:26;;;;;;;3.73;2.37;;;15.00;93.80;;;15.30;45.39;100898.44;5004291;27;99127;-45
2022/01/07 04:57:52;;;;;;;4.30;1.60;;;15.20;94.20;;;15.21;45.27;100890.97;5013508;27;97699;-47
2022/01/07 05:00:21;;;;;;;3.93;1.70;;;15.00;94.70;;;15.39;45.24;100884.69;5003707;27;96758;-49
2022/01/07 05:02:47;;;;;;;6.37;2.77;;;15.30;95.20;;;15.34;44.46;100897.38;5004435;28;98900;-45
2022/01/07 05:05:13;;;;;;;2.50;1.40;;;15.30;93.40;;;15.31;45.15;100881.56;5010187;27;96990;-46
2022/01/07 05:07:40;;;;;;;3.20;1.67;;;15.20;94.70;;;15.27;45.39;100885.31;5008580;27;97622;-46
2022/01/07 05:10:10;;;;;;;5.50;2.57;;;15.10;94.70;;;14.94;41.65;100894.06;5004334;27;97131;-46
2022/01/07 05:12:37;;;;;;;2.00;1.50;;;14.60;92.30;;;14.93;46.22;100902.97;5006581;27;96936;-46
2022/01/07 05:15:05;;;;;;;3.17;2.30;;;14.50;95.10;;;14.88;44.89;100897.00;5002288;27;97300;-50
2022/01/07 05:17:32;;;;;;;5.87;2.57;;;14.40;93.70;;;14.69;42.14;100898.88;5004712;28;97002;-50
2022/01/07 05:19:58;;;;;;;1.73;1.30;;;14.20;93.60;;;14.71;46.62;100891.69;5012913;27;97462;-46
2022/01/07 05:22:23;;;;;;;4.87;1.90;;;14.20;96.30;;;14.54;45.35;100892.50;5010426;27;97453;-49
2022/01/07 05:24:49;;;;;;;2.10;1.33;;;14.10;94.10;;;14.57;47.20;100901.16;4984258;28;99078;-48
2022/01/07 05:27:15;;;;;;;2.00;1.80;;;14.00;97.20;;;14.77;46.36;100880.78;5005374;27;97069;-47
2022/01/07 05:29:41;;;;;;;4.13;2.30;;;14.50;96.10;;;14.91;45.96;100888.91;5009017;28;102871;-47
2022/01/07 05:32:08;;;;;;;3.30;1.83;;;14.80;94.80;;;14.74;43.58;100891.53;5002322;27;97331;-49
2022/01/07 05:34:35;;;;;;;4.80;2.27;;;14.50;93.00;;;14.68;45.00;100897.16;5010063;27;99677;-50
2022/01/07 05:37:01;;;;;;;3.37;1.60;;;14.30;94.00;;;14.66;46.63;100899.03;5010875;28;97523;-46
2022/01/07 05:39:27;;;;;;;4.70;2.13;;;14.20;95.70;;;14.62;46.13;100897.47;4998903;27;97284;-48
2022/01/07 05:41:53;;;;;;;2.33;1.37;;;14.30;95.30;;;14.58;47.13;100891.41;5014227;28;104531;-50
2022/01/07 05:44:19;;;;;;;2.70;1.50;;;14.10;96.80;;;14.86;46.65;100883.81;5005551;27;98332;-47
2022/01/07 05:46:45;;;;;;;1.77;1.50;;;14.60;96.50;;;14.92;46.42;100882.66;5008300;28;97232;-47
2022/01/07 05:49:12;;;;;;;2.37;1.50;;;14.70;96.00;;;15.05;46.04;100880.25;5009674;27;97233;-49
2022/01/07 05:51:37;;;;;;;1.97;1.30;;;14.90;96.00;;;15.22;45.56;100877.59;5008239;27;99762;-52
2022/01/07 05:54:03;;;;;;;2.27;1.40;;;15.20;95.20;;;15.25;45.39;100877.44;5004736;28;109222;-51
2022/01/07 05:56:31;;;;;;;6.27;2.73;;;15.30;94.60;;;15.24;44.57;100875.72;5008930;27;96881;-47
2022/01/07 05:58:57;;;;;;;2.37;1.50;;;15.20;92.00;;;15.27;45.63;100874.69;5004172;28;96903;-51
2022/01/07 06:01:23;;;;;;;2.87;1.40;;;15.10;95.20;;;15.31;45.53;100876.25;5004103;27;98506;-48
2022/01/07 06:03:48;;;;;;;2.00;1.37;;;15.20;95.20;;;15.34;45.37;100865.47;5016096;27;98271;-47
2022/01/07 06:06:14;;;;;;;2.97;1.80;;;15.30;95.20;;;15.31;45.37;100860.28;5003567;27;96908;-49
2022/01/07 06:08:40;;;;;;;1.63;1.40;;;15.20;94.00;;;15.25;45.49;100858.84;5012250;27;96813;-47
2022/01/07 06:11:06;;;;;;;1.77;1.27;;;15.00;95.00;;;15.18;45.50;100860.94;5008286;27;97422;-53
2022/01/07 06:13:32;;;;;;;2.37;1.40;;;14.90;94.40;;;15.17;45.77;100863.66;5010072;27;97316;-48
2022/01/07 06:15:57;;;;;;;5.43;2.37;;;14.90;95.80;;;15.23;45.49;100862.50;5011595;28;104571;-45
2022/01/07 06:18:23;;;;;;;1.57;1.20;;;15.00;94.10;;;15.16;45.80;100868.13;5003336;27;96916;-47
2022/01/07 06:20:50;;;;;;;5.47;2.13;;;14.90;95.00;;;14.95;45.97;100869.22;5011039;28;97737;-47
2022/01/07 06:23:16;;;;;;;3.00;1.77;;;14.50;94.70;;;15.08;46.21;100858.84;5008701;27;97516;-47
2022/01/07 06:25:44;;;;;;;2.80;1.83;;;14.60;96.40;;;15.10;45.80;100855.16;5007812;28;97121;-49
2022/01/07 06:28:10;;;;;;;7.87;2.93;;;14.80;95.10;;;15.04;45.28;100863.44;5009000;27;96837;-50
2022/01/07 06:30:37;;;;;;;2.80;1.57;;;14.70;93.50;;;14.96;46.40;100870.09;5003134;28;96913;-49
2022/01/07 06:33:03;;;;;;;2.83;1.40;;;14.50;95.30;;;14.94;46.65;100856.88;4985054;27;97364;-52
2022/01/07 06:35:29;;;;;;;2.63;1.30;;;14.50;96.70;;;14.91;46.32;100862.34;5005491;28;99583;-47
2022/01/07 06:37:55;;;;;;;4.80;2.17;;;14.50;96.20;;;14.90;45.26;100860.66;5005152;27;97133;-48
2022/01/07 06:40:21;;;;;;;2.23;1.47;;;14.50;94.00;;;14.92;46.65;100860.56;5016794;27;97624;-50
2022/01/07 06:42:47;;;;;;;2.60;1.50;;;14.50;95.60;;;14.85;46.64;100858.19;5010481;28;97561;-48
2022/01/07 06:45:12;;;;;;;2.20;1.33;;;14.40;95.90;;;14.76;46.96;100853.38;5001345;27;97295;-50
2022/01/07 06:47:39;;;;;;;2.47;1.10;;;14.20;96.90;;;14.73;47.17;100857.94;5012736;28;96684;-46
2022/01/07 06:50:06;;;;;;;2.27;1.37;;;14.10;97.50;;;14.74;47.18;100843.72;5004803;27;97072;-49
2022/01/07 06:52:32;;;;;;;2.23;1.33;;;14.20;97.10;;;14.74;47.21;100849.91;5014452;28;97309;-50
2022/01/07 06:54:58;;;;;;;2.20;1.20;;;14.30;96.60;;;14.85;47.10;100846.72;5012077;27;97933;-48
2022/01/07 06:57:23;;;;;;;3.03;1.80;;;14.50;96.90;;;14.87;47.03;100844.84;5007001;27;97332;-51
2022/01/07 06:59:50;;;;;;;1.77;1.20;;;14.50;96.60;;;14.92;46.68;100848.13;5013322;28;97480;-46
2022/01/07 07:02:16;;;;;;;2.67;1.53;;;14.60;96.40;;;14.91;47.00;100854.38;5002855;27;99019;-51
2022/01/07 07:04:44;;;;;;;2.30;1.63;;;14.50;96.00;;;14.84;47.11;100850.31;5000047;28;97189;-50
2022/01/07 07:07:10;;;;;;;1.90;1.30;;;14.30;96.50;;;14.93;46.62;100849.84;5017653;27;97655;-51
2022/01/07 07:09:36;;;;;;;2.27;1.63;;;14.50;96.80;;;15.02;46.58;100848.50;5010950;28;117377;-48
2022/01/07 07:12:02;;;;;;;1.57;1.40;;;14.70;94.80;;;15.09;46.27;100839.31;5009551;27;102909;-56
2022/01/07 07:14:28;;;;;;;1.80;1.17;;;14.80;96.10;;;15.16;46.26;100846.00;5013136;28;96909;-49
2022/01/07 07:16:55;;;;;;;2.17;1.33;;;14.90;95.90;;;15.22;46.05;100844.84;5017391;27;97291;-48
2022/01/07 07:19:22;;;;;;;2.33;1.53;;;15.00;95.70;;;15.30;45.87;100842.63;5007579;27;97005;-48
2022/01/07 07:21:48;;;;;;;3.47;1.70;;;15.20;95.50;;;15.41;45.36;100853.56;5009295;28;97215;-46
2022/01/07 07:24:14;;;;;;;3.43;1.90;;;15.30;95.30;;;15.49;45.38;100843.41;5002482;27;96965;-47
2022/01/07 07:26:40;;;;;;;2.00;1.53;;;15.50;95.20;;;15.47;44.64;100853.22;5000852;28;97071;-46
2022/01/07 07:29:06;;;;;;;2.00;1.60;;;15.50;92.90;;;15.32;45.34;100848.72;5009318;27;98326;-46
2022/01/07 07:31:37;;;;;;;2.50;1.63;;;15.00;94.70;;;15.27;45.64;100850.78;5003364;28;99473;-46
2022/01/07 07:34:19;;;;;;;2.50;1.53;;;15.00;95.70;;;15.21;45.95;100853.75;4990734;27;98630;-53
2022/01/07 07:36:45;;;;;;;2.17;1.33;;;14.90;95.20;;;15.10;46.05;100841.03;4995823;27;97288;-49
2022/01/07 07:39:14;;;;;;;2.37;1.40;;;14.70;95.80;;;15.04;46.38;100852.81;4990877;27;99821;-47
2022/01/07 07:41:42;;;;;;;4.80;2.67;;;14.60;96.10;;;14.92;46.37;100842.81;4997147;27;97358;-51
2022/01/07 07:44:09;;;;;;;2.70;1.67;;;14.30;94.50;;;14.85;46.94;100847.56;4993209;27;97351;-46
2022/01/07 07:46:36;;;;;;;1.67;1.23;;;14.20;97.00;;;14.68;47.14;100854.66;4996004;27;98459;-50
2022/01/07 07:49:05;;;;;;;2.70;1.47;;;14.00;95.70;;;14.59;47.51;100845.34;4992840;27;96943;-56
2022/01/07 07:51:31;;;;;;;1.33;1.23;;;13.80;97.30;;;14.52;47.46;100857.22;4995036;27;100046;-49
2022/01/07 07:53:58;;;;;;;1.80;1.20;;;13.70;97.30;;;14.43;47.69;100855.81;4998557;27;99500;-46
2022/01/07 07:56:26;;;;;;;2.40;1.70;;;13.60;97.60;;;14.29;48.21;100858.28;4991899;27;97407;-49
2022/01/07 07:58:53;;;;;;;3.50;2.20;;;13.40;97.20;;;14.17;46.53;100858.84;4996857;27;97608;-52
2022/01/07 08:01:18;;;;;;;2.70;1.60;;;13.20;96.30;;;14.12;48.64;100867.03;5005456;27;99787;-49
2022/01/07 08:03:45;;;;;;;3.50;2.30;;;13.20;98.50;;;13.99;48.41;100866.75;4983400;27;98644;-48
2022/01/07 08:06:12;;;;;;;5.83;2.30;;;13.10;97.00;;;13.84;48.76;100861.28;4989026;27;97124;-48
2022/01/07 08:08:38;;;;;;;4.20;1.97;;;12.80;97.40;;;13.58;47.62;100859.81;5007432;27;98802;-47
2022/01/07 08:11:07;;;;;;;4.40;1.80;;;12.70;98.10;;;13.28;48.85;100857.59;4991054;27;99363;-46
2022/01/07 08:16:19;;;;;;;3.83;1.83;;;11.90;97.00;;;12.68;48.85;100859.25;4990787;27;98555;-48
2022/01/07 08:18:49;;;;;;;4.43;2.60;;;11.80;98.00;;;12.67;49.91;100854.88;4991898;27;101861;-45
2022/01/07 08:21:16;;;;;;;4.27;2.63;;;11.80;98.20;;;12.49;50.02;100850.34;4987856;27;98349;-49
2022/01/07 08:23:44;;;;;;;2.07;1.57;;;11.70;98.30;;;12.54;48.42;100853.66;4994875;27;97865;-51
2022/01/07 08:26:12;;;;;;;2.47;1.70;;;11.70;99.00;;;12.51;49.05;100849.34;4992816;27;97967;-47
2022/01/07 08:28:44;;;;;;;3.00;1.60;;;11.70;98.00;;;12.53;52.49;100851.94;4992797;27;99310;-46
2022/01/07 08:36:30;;;;;;;2.10;1.40;;;11.50;98.70;;;12.31;53.38;100851.94;4988960;27;98526;-49
2022/01/07 08:38:58;;;;;;;4.30;1.60;;;11.40;99.90;;;12.13;52.01;100850.84;4998270;27;100075;-47
2022/01/07 08:41:27;;;;;;;5.10;2.00;;;11.30;99.20;;;12.08;52.01;100855.47;4989027;27;99062;-50
2022/01/07 08:43:54;;;;;;;2.30;1.40;;;11.30;98.70;;;12.00;53.35;100852.25;4997492;27;97315;-49
2022/01/07 08:46:20;;;;;;;4.07;2.10;;;11.20;99.90;;;11.96;47.20;100855.94;4987551;27;98899;-49
2022/01/07 08:48:46;;;;;;;4.17;2.63;;;11.30;98.00;;;12.13;53.37;100853.50;4998128;27;98943;-50
2022/01/07 08:51:12;;;;;;;3.63;2.20;;;11.40;99.40;;;12.05;49.77;100850.31;4990021;27;102922;-45
2022/01/07 08:53:38;;;;;;;3.77;1.50;;;11.40;98.70;;;11.93;49.16;100850.78;4995102;27;98872;-46
2022/01/07 08:56:06;;;;;;;3.43;1.80;;;11.30;97.90;;;11.99;53.57;100854.94;5004974;27;97563;-48
2022/01/07 08:58:32;;;;;;;4.43;1.53;;;11.20;98.80;;;12.13;53.35;100848.22;4993404;27;97502;-49
2022/01/07 09:00:58;;;;;;;2.73;1.60;;;11.30;99.90;;;12.05;53.17;100838.88;4996776;27;98153;-48
2022/01/07 09:03:25;;;;;;;1.93;1.37;;;11.30;99.80;;;12.21;53.34;100847.94;4989907;27;97837;-47
2022/01/07 09:05:51;;;;;;;2.27;1.30;;;11.40;99.90;;;12.28;53.00;100841.47;4997800;27;97175;-48
2022/01/07 09:08:17;;;;;;;2.20;1.50;;;11.50;99.90;;;12.13;48.72;100840.28;4989270;27;98797;-47
2022/01/07 09:10:44;;;;;;;3.17;1.23;;;11.40;98.40;;;12.30;52.58;100841.44;4981460;27;96821;-50
2022/01/07 09:13:11;;;;;;;3.50;1.13;;;11.60;99.60;;;12.12;53.28;100845.63;5010099;27;97023;-46
2022/01/07 09:15:38;;;;;;;2.63;1.67;;;11.40;99.70;;;12.13;48.75;100837.63;5009293;27;96971;-46
2022/01/07 09:18:11;;;;;;;1.60;1.10;;;11.50;99.10;;;12.30;49.56;100844.06;4992241;27;99213;-52
2022/01/07 09:20:39;;;;;;;1.53;1.00;;;11.60;99.90;;;12.29;49.50;100842.31;4998524;27;100244;-49
2022/01/07 09:23:06;;;;;;;3.20;1.30;;;11.60;99.30;;;12.21;52.76;100829.41;4991266;27;97309;-48
2022/01/07 09:25:32;;;;;;;1.90;1.30;;;11.50;99.80;;;12.36;48.29;100820.00;4999250;27;97161;-49
2022/01/07 09:27:58;;;;;;;2.80;1.30;;;11.80;98.50;;;12.18;52.28;100825.13;4997693;27;97751;-51
2022/01/07 09:30:24;;;;;;;2.67;1.80;;;11.60;99.70;;;12.20;47.92;100827.69;4995479;27;97628;-46
2022/01/07 09:32:50;;;;;;;2.60;1.60;;;11.60;97.70;;;12.43;48.61;100821.47;4998244;27;97951;-48
2022/01/07 09:35:17;;;;;;;2.33;1.23;;;11.90;98.90;;;12.45;51.39;100832.88;4986607;27;97198;-48
2022/01/07 09:37:44;;;;;;;1.20;0.97;;;11.80;98.40;;;12.67;52.37;100827.53;5009883;27;97160;-49
2022/01/07 09:40:12;;;;;;;3.90;1.73;;;12.00;99.90;;;12.70;51.53;100833.56;4989574;27;100277;-48
2022/01/07 09:42:47;;;;;;;2.93;1.80;;;12.10;98.90;;;12.68;48.91;100831.91;4992139;27;99710;-48
2022/01/07 09:45:14;;;;;;;4.43;1.80;;;12.10;98.30;;;12.35;46.45;100826.22;4990118;27;96865;-47
2022/01/07 09:47:39;;;;;;;2.57;1.70;;;11.90;96.80;;;12.42;48.73;100832.97;4994317;27;100255;-49
2022/01/07 09:50:06;;;;;;;1.23;1.00;;;11.80;97.40;;;12.39;46.82;100830.47;4991419;27;97467;-48
2022/01/07 09:52:32;;;;;;;2.47;1.10;;;11.80;97.70;;;12.14;48.52;100823.50;4993407;27;97463;-50
2022/01/07 09:54:58;;;;;;;2.03;0.90;;;11.60;97.50;;;12.02;50.83;100831.94;4996918;27;99028;-45
2022/01/07 09:57:23;;;;;;;1.67;0.90;;;11.40;98.90;;;12.07;51.34;100822.03;4988384;27;99775;-46
2022/01/07 09:59:55;;;;;;;3.40;1.10;;;11.40;99.10;;;12.03;51.23;100831.00;5012905;27;97914;-49
2022/01/07 10:02:23;;;;;;;4.30;1.20;;;11.40;99.10;;;12.02;51.12;100829.28;4985116;27;97075;-46
2022/01/07 10:04:49;;;;;;;2.10;1.33;;;11.40;98.40;;;12.16;51.60;100834.03;4993724;27;97538;-47
2022/01/07 10:07:24;;;;;;;2.80;1.30;;;11.50;99.90;;;12.30;48.06;100836.13;5002377;27;98708;-52
2022/01/07 10:09:58;;;;;;;1.70;1.10;;;11.70;98.60;;;12.26;50.77;100821.28;4991809;27;99461;-47
2022/01/07 10:12:25;;;;;;;2.00;1.23;;;11.70;98.70;;;12.32;49.88;100818.41;4989511;27;97918;-47
2022/01/07 10:15:11;;;;;;;2.53;1.50;;;11.70;97.90;;;12.23;49.68;100824.91;4992715;27;97904;-49
2022/01/07 10:17:37;;;;;;;2.03;1.50;;;11.60;98.00;;;12.21;48.02;100818.84;4981779;27;103703;-45
2022/01/07 10:20:04;;;;;;;2.30;1.33;;;11.50;98.90;;;12.11;52.13;100818.31;4984870;27;97070;-53
2022/01/07 10:22:55;;;;;;;1.90;1.03;;;11.40;99.60;;;12.16;48.62;100826.97;4990788;27;96847;-49
2022/01/07 10:25:27;;;;;;;1.50;1.00;;;11.50;98.80;;;12.09;53.06;100814.03;4988507;27;99027;-45